Terminal Aerodrome Forecast
Issued by NWS

Home | Current Version | Previous Version | Text Only | Print | Product List | Glossary On
Versions: 1 2 3 4 5 6 7 8 9 10 11 12 13 14 15 16
000
FTPA31 PHFO 250714 CCA
TAFHMK
TAF COR
PHMK 250714Z 2507/2606 04011G19KT P6SM SCT012 BKN040
      TEMPO 2507/2511 BKN008 BKN020
     FM252000 04015G25KT P6SM FEW020 SCT050
     FM260500 04010G15KT P6SM FEW020 SCT045
      AMD NOT SKED=

USA.gov is the U.S. government's official web portal to all federal, state and local government web resources and services.